sensor_id;sensor_type;location;lat;lon;timestamp;temperature;humidity
9881;DHT22;4979;51.014;6.678;2023-03-20T00:01:19;10.10;99.90
9881;DHT22;4979;51.014;6.678;2023-03-20T00:03:46;10.00;99.90
9881;DHT22;4979;51.014;6.678;2023-03-20T00:06:20;10.00;99.90
9881;DHT22;4979;51.014;6.678;2023-03-20T00:08:49;10.00;99.90
9881;DHT22;4979;51.014;6.678;2023-03-20T00:11:29;10.00;99.90
9881;DHT22;4979;51.014;6.678;2023-03-20T00:14:00;9.90;99.90
9881;DHT22;4979;51.014;6.678;2023-03-20T00:16:35;9.90;99.90
9881;DHT22;4979;51.014;6.678;2023-03-20T00:19:01;9.80;99.90
9881;DHT22;4979;51.014;6.678;2023-03-20T00:21:28;9.90;99.90
9881;DHT22;4979;51.014;6.678;2023-03-20T00:23:55;9.90;99.90
9881;DHT22;4979;51.014;6.678;2023-03-20T00:26:25;9.90;99.90
9881;DHT22;4979;51.014;6.678;2023-03-20T00:28:51;9.90;99.90
9881;DHT22;4979;51.014;6.678;2023-03-20T00:31:32;9.90;99.90
9881;DHT22;4979;51.014;6.678;2023-03-20T00:34:09;9.80;99.90
9881;DHT22;4979;51.014;6.678;2023-03-20T00:39:03;9.80;99.90
9881;DHT22;4979;51.014;6.678;2023-03-20T00:41:50;9.80;99.90
9881;DHT22;4979;51.014;6.678;2023-03-20T00:46:45;9.80;99.90
9881;DHT22;4979;51.014;6.678;2023-03-20T00:49:11;9.80;99.90
9881;DHT22;4979;51.014;6.678;2023-03-20T00:54:14;9.70;99.90
9881;DHT22;4979;51.014;6.678;2023-03-20T00:56:47;9.70;99.90
9881;DHT22;4979;51.014;6.678;2023-03-20T00:59:18;9.70;99.90
9881;DHT22;4979;51.014;6.678;2023-03-20T01:01:45;9.70;99.90
9881;DHT22;4979;51.014;6.678;2023-03-20T01:04:13;9.70;99.90
9881;DHT22;4979;51.014;6.678;2023-03-20T01:09:05;9.70;99.90
9881;DHT22;4979;51.014;6.678;2023-03-20T01:13:57;9.60;99.90
9881;DHT22;4979;51.014;6.678;2023-03-20T01:16:25;9.60;99.90
9881;DHT22;4979;51.014;6.678;2023-03-20T01:18:52;9.70;99.90
9881;DHT22;4979;51.014;6.678;2023-03-20T01:21:18;9.60;99.90
9881;DHT22;4979;51.014;6.678;2023-03-20T01:23:45;9.60;99.90
9881;DHT22;4979;51.014;6.678;2023-03-20T01:26:22;9.60;99.90
9881;DHT22;4979;51.014;6.678;2023-03-20T01:28:49;9.50;99.90
9881;DHT22;4979;51.014;6.678;2023-03-20T01:31:16;9.60;99.90
9881;DHT22;4979;51.014;6.678;2023-03-20T01:33:42;9.60;99.90
9881;DHT22;4979;51.014;6.678;2023-03-20T01:36:13;9.50;99.90
9881;DHT22;4979;51.014;6.678;2023-03-20T01:38:40;9.50;99.90
9881;DHT22;4979;51.014;6.678;2023-03-20T01:41:16;9.50;99.90
9881;DHT22;4979;51.014;6.678;2023-03-20T01:43:43;9.50;99.90
9881;DHT22;4979;51.014;6.678;2023-03-20T01:51:20;9.60;99.90
9881;DHT22;4979;51.014;6.678;2023-03-20T01:53:50;9.60;99.90
9881;DHT22;4979;51.014;6.678;2023-03-20T01:56:17;9.50;99.90
9881;DHT22;4979;51.014;6.678;2023-03-20T01:58:48;9.50;99.90
9881;DHT22;4979;51.014;6.678;2023-03-20T02:01:16;9.50;99.90
9881;DHT22;4979;51.014;6.678;2023-03-20T02:03:47;9.50;99.90
9881;DHT22;4979;51.014;6.678;2023-03-20T02:06:14;9.40;99.90
9881;DHT22;4979;51.014;6.678;2023-03-20T02:08:43;9.40;99.90
9881;DHT22;4979;51.014;6.678;2023-03-20T02:11:11;9.40;99.90
9881;DHT22;4979;51.014;6.678;2023-03-20T02:16:08;9.40;99.90
9881;DHT22;4979;51.014;6.678;2023-03-20T02:18:34;9.40;99.90
9881;DHT22;4979;51.014;6.678;2023-03-20T02:23:48;9.40;99.90
9881;DHT22;4979;51.014;6.678;2023-03-20T02:26:37;9.40;99.90
9881;DHT22;4979;51.014;6.678;2023-03-20T02:40:36;9.30;99.90
9881;DHT22;4979;51.014;6.678;2023-03-20T02:48:37;9.20;99.90
9881;DHT22;4979;51.014;6.678;2023-03-20T02:51:40;9.10;99.90
9881;DHT22;4979;51.014;6.678;2023-03-20T02:54:22;9.10;99.90
9881;DHT22;4979;51.014;6.678;2023-03-20T02:57:04;9.10;99.90
9881;DHT22;4979;51.014;6.678;2023-03-20T02:59:48;9.10;99.90
9881;DHT22;4979;51.014;6.678;2023-03-20T03:02:30;9.10;99.90
9881;DHT22;4979;51.014;6.678;2023-03-20T03:05:03;9.10;99.90
9881;DHT22;4979;51.014;6.678;2023-03-20T03:07:32;9.10;99.90
9881;DHT22;4979;51.014;6.678;2023-03-20T03:10:11;9.20;99.90
9881;DHT22;4979;51.014;6.678;2023-03-20T03:12:40;9.10;99.90
9881;DHT22;4979;51.014;6.678;2023-03-20T03:15:18;9.10;99.90
9881;DHT22;4979;51.014;6.678;2023-03-20T03:17:46;9.10;99.90
9881;DHT22;4979;51.014;6.678;2023-03-20T03:20:25;9.10;99.90
9881;DHT22;4979;51.014;6.678;2023-03-20T03:25:19;9.10;99.90
9881;DHT22;4979;51.014;6.678;2023-03-20T03:27:49;9.10;99.90
9881;DHT22;4979;51.014;6.678;2023-03-20T03:32:50;9.00;99.90
9881;DHT22;4979;51.014;6.678;2023-03-20T03:35:21;9.00;99.90
9881;DHT22;4979;51.014;6.678;2023-03-20T03:38:15;9.00;99.90
9881;DHT22;4979;51.014;6.678;2023-03-20T03:43:34;8.90;99.90
9881;DHT22;4979;51.014;6.678;2023-03-20T03:46:12;8.80;99.90
9881;DHT22;4979;51.014;6.678;2023-03-20T03:48:46;8.70;99.90
9881;DHT22;4979;51.014;6.678;2023-03-20T03:51:16;8.70;99.90
9881;DHT22;4979;51.014;6.678;2023-03-20T03:53:48;8.60;99.90
9881;DHT22;4979;51.014;6.678;2023-03-20T03:56:19;8.50;99.90
9881;DHT22;4979;51.014;6.678;2023-03-20T03:58:51;8.40;99.90
9881;DHT22;4979;51.014;6.678;2023-03-20T04:01:19;8.50;99.90
9881;DHT22;4979;51.014;6.678;2023-03-20T04:03:53;8.40;99.90
9881;DHT22;4979;51.014;6.678;2023-03-20T04:06:21;8.40;99.90
9881;DHT22;4979;51.014;6.678;2023-03-20T04:11:18;8.40;99.90
9881;DHT22;4979;51.014;6.678;2023-03-20T04:13:46;8.40;99.90
9881;DHT22;4979;51.014;6.678;2023-03-20T04:16:12;8.40;99.90
9881;DHT22;4979;51.014;6.678;2023-03-20T04:21:04;8.40;99.90
9881;DHT22;4979;51.014;6.678;2023-03-20T04:23:31;8.40;99.90
9881;DHT22;4979;51.014;6.678;2023-03-20T04:25:57;8.40;99.90
9881;DHT22;4979;51.014;6.678;2023-03-20T04:28:23;8.40;99.90
9881;DHT22;4979;51.014;6.678;2023-03-20T04:30:53;8.40;99.90
9881;DHT22;4979;51.014;6.678;2023-03-20T04:33:18;8.30;99.90
9881;DHT22;4979;51.014;6.678;2023-03-20T04:38:10;8.30;99.90
9881;DHT22;4979;51.014;6.678;2023-03-20T04:43:02;8.30;99.90
9881;DHT22;4979;51.014;6.678;2023-03-20T04:45:27;8.30;99.90
9881;DHT22;4979;51.014;6.678;2023-03-20T04:50:19;8.40;99.90
9881;DHT22;4979;51.014;6.678;2023-03-20T04:52:45;8.40;99.90
9881;DHT22;4979;51.014;6.678;2023-03-20T04:57:36;8.40;99.90
9881;DHT22;4979;51.014;6.678;2023-03-20T05:00:03;8.30;99.90
9881;DHT22;4979;51.014;6.678;2023-03-20T05:02:29;8.30;99.90
9881;DHT22;4979;51.014;6.678;2023-03-20T05:07:20;8.20;99.90
9881;DHT22;4979;51.014;6.678;2023-03-20T05:09:46;8.20;99.90
9881;DHT22;4979;51.014;6.678;2023-03-20T05:12:12;8.20;99.90
9881;DHT22;4979;51.014;6.678;2023-03-20T05:17:03;8.20;99.90
9881;DHT22;4979;51.014;6.678;2023-03-20T05:24:21;8.20;99.90
9881;DHT22;4979;51.014;6.678;2023-03-20T05:26:47;8.20;99.90
9881;DHT22;4979;51.014;6.678;2023-03-20T05:36:30;8.10;99.90
9881;DHT22;4979;51.014;6.678;2023-03-20T05:38:56;8.10;99.90
9881;DHT22;4979;51.014;6.678;2023-03-20T05:41:22;8.10;99.90
9881;DHT22;4979;51.014;6.678;2023-03-20T05:43:47;8.00;99.90
9881;DHT22;4979;51.014;6.678;2023-03-20T05:46:13;8.00;99.90
9881;DHT22;4979;51.014;6.678;2023-03-20T05:51:05;8.00;99.90
9881;DHT22;4979;51.014;6.678;2023-03-20T05:53:31;7.90;99.90
9881;DHT22;4979;51.014;6.678;2023-03-20T05:58:22;8.00;99.90
9881;DHT22;4979;51.014;6.678;2023-03-20T06:00:48;8.00;99.90
9881;DHT22;4979;51.014;6.678;2023-03-20T06:05:39;7.90;99.90
9881;DHT22;4979;51.014;6.678;2023-03-20T06:08:05;7.90;99.90
9881;DHT22;4979;51.014;6.678;2023-03-20T06:10:31;8.00;99.90
9881;DHT22;4979;51.014;6.678;2023-03-20T06:12:57;8.00;99.90
9881;DHT22;4979;51.014;6.678;2023-03-20T06:15:28;8.00;99.90
9881;DHT22;4979;51.014;6.678;2023-03-20T06:17:54;8.10;99.90
9881;DHT22;4979;51.014;6.678;2023-03-20T06:20:20;8.10;99.90
9881;DHT22;4979;51.014;6.678;2023-03-20T06:22:46;8.10;99.90
9881;DHT22;4979;51.014;6.678;2023-03-20T06:25:11;8.20;99.90
9881;DHT22;4979;51.014;6.678;2023-03-20T06:27:37;8.30;99.90
9881;DHT22;4979;51.014;6.678;2023-03-20T06:30:04;8.30;99.90
9881;DHT22;4979;51.014;6.678;2023-03-20T06:32:30;8.30;99.90
9881;DHT22;4979;51.014;6.678;2023-03-20T06:34:56;8.30;99.90
9881;DHT22;4979;51.014;6.678;2023-03-20T06:37:21;8.30;99.90
9881;DHT22;4979;51.014;6.678;2023-03-20T06:39:47;8.30;99.90
9881;DHT22;4979;51.014;6.678;2023-03-20T06:42:13;8.40;99.90
9881;DHT22;4979;51.014;6.678;2023-03-20T06:47:04;8.40;99.90
9881;DHT22;4979;51.014;6.678;2023-03-20T06:51:56;8.40;99.90
9881;DHT22;4979;51.014;6.678;2023-03-20T06:54:24;8.40;99.90
9881;DHT22;4979;51.014;6.678;2023-03-20T06:56:49;8.40;99.90
9881;DHT22;4979;51.014;6.678;2023-03-20T07:01:42;8.40;99.90
9881;DHT22;4979;51.014;6.678;2023-03-20T07:04:07;8.50;99.90
9881;DHT22;4979;51.014;6.678;2023-03-20T07:06:33;8.60;99.90
9881;DHT22;4979;51.014;6.678;2023-03-20T07:08:59;8.60;99.90
9881;DHT22;4979;51.014;6.678;2023-03-20T07:13:52;8.70;99.90
9881;DHT22;4979;51.014;6.678;2023-03-20T07:16:18;8.60;99.90
9881;DHT22;4979;51.014;6.678;2023-03-20T07:21:16;8.70;99.90
9881;DHT22;4979;51.014;6.678;2023-03-20T07:28:34;8.80;99.90
9881;DHT22;4979;51.014;6.678;2023-03-20T07:31:00;8.80;99.90
9881;DHT22;4979;51.014;6.678;2023-03-20T07:33:25;8.80;99.90
9881;DHT22;4979;51.014;6.678;2023-03-20T07:35:53;8.90;99.90
9881;DHT22;4979;51.014;6.678;2023-03-20T07:38:19;9.00;99.90
9881;DHT22;4979;51.014;6.678;2023-03-20T07:45:39;9.10;99.90
9881;DHT22;4979;51.014;6.678;2023-03-20T07:48:04;9.10;99.90
9881;DHT22;4979;51.014;6.678;2023-03-20T07:50:30;9.00;99.90
9881;DHT22;4979;51.014;6.678;2023-03-20T07:52:56;9.10;99.90
9881;DHT22;4979;51.014;6.678;2023-03-20T07:55:21;9.10;99.90
9881;DHT22;4979;51.014;6.678;2023-03-20T07:57:48;9.20;99.90
9881;DHT22;4979;51.014;6.678;2023-03-20T08:00:14;9.30;99.90
9881;DHT22;4979;51.014;6.678;2023-03-20T08:02:40;9.50;99.90
9881;DHT22;4979;51.014;6.678;2023-03-20T08:05:06;9.60;99.90
9881;DHT22;4979;51.014;6.678;2023-03-20T08:07:32;9.60;99.90
9881;DHT22;4979;51.014;6.678;2023-03-20T08:14:50;9.60;99.90
9881;DHT22;4979;51.014;6.678;2023-03-20T08:17:16;9.70;99.90
9881;DHT22;4979;51.014;6.678;2023-03-20T08:19:42;9.70;99.90
9881;DHT22;4979;51.014;6.678;2023-03-20T08:22:08;9.70;99.90
9881;DHT22;4979;51.014;6.678;2023-03-20T08:24:33;9.60;99.90
9881;DHT22;4979;51.014;6.678;2023-03-20T08:26:59;9.70;99.90
9881;DHT22;4979;51.014;6.678;2023-03-20T08:31:51;9.60;99.90
9881;DHT22;4979;51.014;6.678;2023-03-20T08:34:16;9.50;99.90
9881;DHT22;4979;51.014;6.678;2023-03-20T08:36:42;9.60;99.90
9881;DHT22;4979;51.014;6.678;2023-03-20T08:39:08;9.50;99.90
9881;DHT22;4979;51.014;6.678;2023-03-20T08:41:36;9.60;99.90
9881;DHT22;4979;51.014;6.678;2023-03-20T08:46:29;9.80;99.90
9881;DHT22;4979;51.014;6.678;2023-03-20T08:51:20;10.10;99.90
9881;DHT22;4979;51.014;6.678;2023-03-20T08:53:46;10.00;99.90
9881;DHT22;4979;51.014;6.678;2023-03-20T09:01:05;10.20;99.90
9881;DHT22;4979;51.014;6.678;2023-03-20T09:08:24;9.90;99.90
9881;DHT22;4979;51.014;6.678;2023-03-20T09:10:49;10.00;99.90
9881;DHT22;4979;51.014;6.678;2023-03-20T09:13:15;10.00;99.90
9881;DHT22;4979;51.014;6.678;2023-03-20T09:15:41;9.90;99.90
9881;DHT22;4979;51.014;6.678;2023-03-20T09:20:32;10.00;99.90
9881;DHT22;4979;51.014;6.678;2023-03-20T09:22:58;10.20;99.90
9881;DHT22;4979;51.014;6.678;2023-03-20T09:25:23;10.30;99.90
9881;DHT22;4979;51.014;6.678;2023-03-20T09:27:53;10.20;99.90
9881;DHT22;4979;51.014;6.678;2023-03-20T09:30:22;10.30;99.90
9881;DHT22;4979;51.014;6.678;2023-03-20T09:32:49;10.20;99.90
9881;DHT22;4979;51.014;6.678;2023-03-20T09:35:16;10.30;99.90
9881;DHT22;4979;51.014;6.678;2023-03-20T09:37:42;10.10;99.90
9881;DHT22;4979;51.014;6.678;2023-03-20T09:40:29;10.30;99.90
9881;DHT22;4979;51.014;6.678;2023-03-20T09:43:13;10.30;99.90
9881;DHT22;4979;51.014;6.678;2023-03-20T09:48:32;10.40;99.90
9881;DHT22;4979;51.014;6.678;2023-03-20T09:54:12;10.40;99.90
9881;DHT22;4979;51.014;6.678;2023-03-20T09:56:40;10.40;99.90
9881;DHT22;4979;51.014;6.678;2023-03-20T09:59:06;10.40;99.90
9881;DHT22;4979;51.014;6.678;2023-03-20T10:01:53;10.50;99.90
9881;DHT22;4979;51.014;6.678;2023-03-20T10:04:19;10.70;99.90
9881;DHT22;4979;51.014;6.678;2023-03-20T10:06:45;10.60;99.90
9881;DHT22;4979;51.014;6.678;2023-03-20T10:09:20;10.50;99.90
9881;DHT22;4979;51.014;6.678;2023-03-20T10:14:41;10.40;99.90
9881;DHT22;4979;51.014;6.678;2023-03-20T10:19:44;10.50;99.90
9881;DHT22;4979;51.014;6.678;2023-03-20T10:22:35;10.50;99.90
9881;DHT22;4979;51.014;6.678;2023-03-20T10:33:45;10.30;99.90
9881;DHT22;4979;51.014;6.678;2023-03-20T10:36:45;10.40;99.90
9881;DHT22;4979;51.014;6.678;2023-03-20T10:39:33;10.30;99.90
9881;DHT22;4979;51.014;6.678;2023-03-20T10:42:04;10.40;99.90
9881;DHT22;4979;51.014;6.678;2023-03-20T10:44:38;10.20;99.90
9881;DHT22;4979;51.014;6.678;2023-03-20T10:47:07;10.40;99.90
9881;DHT22;4979;51.014;6.678;2023-03-20T10:49:46;10.40;99.90
9881;DHT22;4979;51.014;6.678;2023-03-20T10:52:19;10.60;99.90
9881;DHT22;4979;51.014;6.678;2023-03-20T10:54:51;10.60;99.90
9881;DHT22;4979;51.014;6.678;2023-03-20T10:57:24;10.40;99.90
9881;DHT22;4979;51.014;6.678;2023-03-20T10:59:52;10.30;99.90
9881;DHT22;4979;51.014;6.678;2023-03-20T11:02:20;10.20;99.90
9881;DHT22;4979;51.014;6.678;2023-03-20T11:04:47;10.30;99.90
9881;DHT22;4979;51.014;6.678;2023-03-20T11:07:32;10.40;99.90
9881;DHT22;4979;51.014;6.678;2023-03-20T11:12:48;10.20;99.90
9881;DHT22;4979;51.014;6.678;2023-03-20T11:15:31;10.20;99.90
9881;DHT22;4979;51.014;6.678;2023-03-20T11:20:24;10.10;99.90
9881;DHT22;4979;51.014;6.678;2023-03-20T11:22:57;10.10;99.90
9881;DHT22;4979;51.014;6.678;2023-03-20T11:25:35;10.10;99.90
9881;DHT22;4979;51.014;6.678;2023-03-20T11:28:37;10.00;99.90
9881;DHT22;4979;51.014;6.678;2023-03-20T11:33:38;9.90;99.90
9881;DHT22;4979;51.014;6.678;2023-03-20T11:36:44;9.80;99.90
9881;DHT22;4979;51.014;6.678;2023-03-20T11:39:23;9.80;99.90
9881;DHT22;4979;51.014;6.678;2023-03-20T11:41:53;10.00;99.90
9881;DHT22;4979;51.014;6.678;2023-03-20T11:44:29;9.80;99.90
9881;DHT22;4979;51.014;6.678;2023-03-20T11:47:00;9.70;99.90
9881;DHT22;4979;51.014;6.678;2023-03-20T11:49:31;9.70;99.90
9881;DHT22;4979;51.014;6.678;2023-03-20T11:52:01;9.50;99.90
9881;DHT22;4979;51.014;6.678;2023-03-20T11:54:28;9.70;99.90
9881;DHT22;4979;51.014;6.678;2023-03-20T11:56:58;9.80;99.90
9881;DHT22;4979;51.014;6.678;2023-03-20T11:59:35;9.90;99.90
9881;DHT22;4979;51.014;6.678;2023-03-20T12:02:03;10.00;99.90
9881;DHT22;4979;51.014;6.678;2023-03-20T12:04:33;10.10;99.90
9881;DHT22;4979;51.014;6.678;2023-03-20T12:07:25;10.20;99.90
9881;DHT22;4979;51.014;6.678;2023-03-20T12:12:48;10.00;99.90
9881;DHT22;4979;51.014;6.678;2023-03-20T12:15:21;10.00;99.90
9881;DHT22;4979;51.014;6.678;2023-03-20T12:21:02;10.20;99.90
9881;DHT22;4979;51.014;6.678;2023-03-20T12:26:10;10.20;99.90
9881;DHT22;4979;51.014;6.678;2023-03-20T12:36:16;9.90;99.90
9881;DHT22;4979;51.014;6.678;2023-03-20T12:38:43;10.00;99.90
9881;DHT22;4979;51.014;6.678;2023-03-20T12:41:14;10.00;99.90
9881;DHT22;4979;51.014;6.678;2023-03-20T12:46:40;10.30;99.90
9881;DHT22;4979;51.014;6.678;2023-03-20T12:52:25;10.50;99.90
9881;DHT22;4979;51.014;6.678;2023-03-20T13:00:43;10.40;99.90
9881;DHT22;4979;51.014;6.678;2023-03-20T13:06:03;10.50;99.90
9881;DHT22;4979;51.014;6.678;2023-03-20T13:11:13;10.50;99.90
9881;DHT22;4979;51.014;6.678;2023-03-20T13:14:05;10.50;99.90
9881;DHT22;4979;51.014;6.678;2023-03-20T13:19:32;10.80;99.90
9881;DHT22;4979;51.014;6.678;2023-03-20T13:22:22;10.80;99.90
9881;DHT22;4979;51.014;6.678;2023-03-20T13:24:56;10.80;99.90
9881;DHT22;4979;51.014;6.678;2023-03-20T13:30:36;10.90;99.90
9881;DHT22;4979;51.014;6.678;2023-03-20T13:38:34;11.00;99.90
9881;DHT22;4979;51.014;6.678;2023-03-20T13:41:03;11.10;99.90
9881;DHT22;4979;51.014;6.678;2023-03-20T13:46:30;11.30;99.90
9881;DHT22;4979;51.014;6.678;2023-03-20T13:49:02;11.20;99.90
9881;DHT22;4979;51.014;6.678;2023-03-20T13:51:41;11.10;99.90
9881;DHT22;4979;51.014;6.678;2023-03-20T13:57:07;11.20;99.90
9881;DHT22;4979;51.014;6.678;2023-03-20T13:59:57;11.50;99.90
9881;DHT22;4979;51.014;6.678;2023-03-20T14:05:20;11.70;99.90
9881;DHT22;4979;51.014;6.678;2023-03-20T14:07:48;11.60;99.90
9881;DHT22;4979;51.014;6.678;2023-03-20T14:13:05;11.50;99.90
9881;DHT22;4979;51.014;6.678;2023-03-20T14:15:33;11.40;99.90
9881;DHT22;4979;51.014;6.678;2023-03-20T14:18:12;11.40;99.90
9881;DHT22;4979;51.014;6.678;2023-03-20T14:20:41;11.20;99.90
9881;DHT22;4979;51.014;6.678;2023-03-20T14:23:17;11.30;99.90
9881;DHT22;4979;51.014;6.678;2023-03-20T14:25:46;11.30;99.90
9881;DHT22;4979;51.014;6.678;2023-03-20T14:30:46;11.10;99.90
9881;DHT22;4979;51.014;6.678;2023-03-20T14:35:48;11.00;99.90
9881;DHT22;4979;51.014;6.678;2023-03-20T14:38:22;11.10;99.90
9881;DHT22;4979;51.014;6.678;2023-03-20T14:41:27;11.00;99.90
9881;DHT22;4979;51.014;6.678;2023-03-20T14:44:19;10.90;99.90
9881;DHT22;4979;51.014;6.678;2023-03-20T15:00:28;11.00;99.90
9881;DHT22;4979;51.014;6.678;2023-03-20T15:03:15;11.00;99.90
9881;DHT22;4979;51.014;6.678;2023-03-20T15:05:43;11.00;99.90
9881;DHT22;4979;51.014;6.678;2023-03-20T15:10:52;11.00;99.90
9881;DHT22;4979;51.014;6.678;2023-03-20T15:13:18;11.00;99.90
9881;DHT22;4979;51.014;6.678;2023-03-20T15:16:02;11.10;99.90
9881;DHT22;4979;51.014;6.678;2023-03-20T15:18:28;11.10;99.90
9881;DHT22;4979;51.014;6.678;2023-03-20T15:20:55;11.10;99.90
9881;DHT22;4979;51.014;6.678;2023-03-20T15:23:22;10.90;99.90
9881;DHT22;4979;51.014;6.678;2023-03-20T15:25:49;11.10;99.90
9881;DHT22;4979;51.014;6.678;2023-03-20T15:28:23;11.20;99.90
9881;DHT22;4979;51.014;6.678;2023-03-20T15:30:50;11.40;99.90
9881;DHT22;4979;51.014;6.678;2023-03-20T15:33:30;11.50;99.90
9881;DHT22;4979;51.014;6.678;2023-03-20T15:35:56;11.50;99.90
9881;DHT22;4979;51.014;6.678;2023-03-20T15:38:32;11.50;99.90
9881;DHT22;4979;51.014;6.678;2023-03-20T15:43:26;11.40;99.90
9881;DHT22;4979;51.014;6.678;2023-03-20T15:45:53;11.40;99.90
9881;DHT22;4979;51.014;6.678;2023-03-20T15:48:22;11.50;99.90
9881;DHT22;4979;51.014;6.678;2023-03-20T15:50:55;11.40;99.90
9881;DHT22;4979;51.014;6.678;2023-03-20T15:53:32;11.30;99.90
9881;DHT22;4979;51.014;6.678;2023-03-20T15:56:06;11.20;99.90
9881;DHT22;4979;51.014;6.678;2023-03-20T15:58:33;11.30;99.90
9881;DHT22;4979;51.014;6.678;2023-03-20T16:01:02;11.20;99.90
9881;DHT22;4979;51.014;6.678;2023-03-20T16:03:28;11.20;99.90
9881;DHT22;4979;51.014;6.678;2023-03-20T16:05:58;11.20;99.90
9881;DHT22;4979;51.014;6.678;2023-03-20T16:08:30;11.20;99.90
9881;DHT22;4979;51.014;6.678;2023-03-20T16:15:50;11.40;99.90
9881;DHT22;4979;51.014;6.678;2023-03-20T16:18:16;11.40;99.90
9881;DHT22;4979;51.014;6.678;2023-03-20T16:20:53;11.30;99.90
9881;DHT22;4979;51.014;6.678;2023-03-20T16:23:34;11.30;99.90
9881;DHT22;4979;51.014;6.678;2023-03-20T16:26:02;11.30;99.90
9881;DHT22;4979;51.014;6.678;2023-03-20T16:28:29;11.20;99.90
9881;DHT22;4979;51.014;6.678;2023-03-20T16:31:06;11.30;99.90
9881;DHT22;4979;51.014;6.678;2023-03-20T16:35:59;11.30;99.90
9881;DHT22;4979;51.014;6.678;2023-03-20T16:38:31;11.10;99.90
9881;DHT22;4979;51.014;6.678;2023-03-20T16:41:27;11.10;99.90
9881;DHT22;4979;51.014;6.678;2023-03-20T16:43:54;11.10;99.90
9881;DHT22;4979;51.014;6.678;2023-03-20T16:46:26;11.00;99.90
9881;DHT22;4979;51.014;6.678;2023-03-20T16:48:56;11.00;99.90
9881;DHT22;4979;51.014;6.678;2023-03-20T16:51:33;11.00;99.90
9881;DHT22;4979;51.014;6.678;2023-03-20T16:54:00;10.90;99.90
9881;DHT22;4979;51.014;6.678;2023-03-20T16:56:36;10.90;99.90
9881;DHT22;4979;51.014;6.678;2023-03-20T16:59:10;10.90;99.90
9881;DHT22;4979;51.014;6.678;2023-03-20T17:01:43;10.90;99.90
9881;DHT22;4979;51.014;6.678;2023-03-20T17:04:33;10.90;99.90
9881;DHT22;4979;51.014;6.678;2023-03-20T17:07:04;10.90;99.90
9881;DHT22;4979;51.014;6.678;2023-03-20T17:09:31;10.90;99.90
9881;DHT22;4979;51.014;6.678;2023-03-20T17:12:04;10.90;99.90
9881;DHT22;4979;51.014;6.678;2023-03-20T17:14:30;10.90;99.90
9881;DHT22;4979;51.014;6.678;2023-03-20T17:21:49;10.80;99.90
9881;DHT22;4979;51.014;6.678;2023-03-20T17:24:16;10.80;99.90
9881;DHT22;4979;51.014;6.678;2023-03-20T17:26:45;10.80;99.90
9881;DHT22;4979;51.014;6.678;2023-03-20T17:29:13;10.80;99.90
9881;DHT22;4979;51.014;6.678;2023-03-20T17:34:05;10.70;99.90
9881;DHT22;4979;51.014;6.678;2023-03-20T17:36:32;10.70;99.90
9881;DHT22;4979;51.014;6.678;2023-03-20T17:38:59;10.70;99.90
9881;DHT22;4979;51.014;6.678;2023-03-20T17:41:26;10.70;99.90
9881;DHT22;4979;51.014;6.678;2023-03-20T17:43:53;10.60;99.90
9881;DHT22;4979;51.014;6.678;2023-03-20T17:46:29;10.70;99.90
9881;DHT22;4979;51.014;6.678;2023-03-20T17:49:01;10.70;99.90
9881;DHT22;4979;51.014;6.678;2023-03-20T17:51:28;10.60;99.90
9881;DHT22;4979;51.014;6.678;2023-03-20T17:53:54;10.70;99.90
9881;DHT22;4979;51.014;6.678;2023-03-20T17:56:23;10.60;99.90
9881;DHT22;4979;51.014;6.678;2023-03-20T17:58:50;10.60;99.90
9881;DHT22;4979;51.014;6.678;2023-03-20T18:01:16;10.60;99.90
9881;DHT22;4979;51.014;6.678;2023-03-20T18:06:29;10.70;99.90
9881;DHT22;4979;51.014;6.678;2023-03-20T18:08:56;10.60;99.90
9881;DHT22;4979;51.014;6.678;2023-03-20T18:13:49;10.60;99.90
9881;DHT22;4979;51.014;6.678;2023-03-20T18:16:20;10.60;99.90
9881;DHT22;4979;51.014;6.678;2023-03-20T18:18:47;10.70;99.90
9881;DHT22;4979;51.014;6.678;2023-03-20T18:21:14;10.70;99.90
9881;DHT22;4979;51.014;6.678;2023-03-20T18:23:41;10.50;99.90
9881;DHT22;4979;51.014;6.678;2023-03-20T18:26:21;10.60;99.90
9881;DHT22;4979;51.014;6.678;2023-03-20T18:28:48;10.60;99.90
9881;DHT22;4979;51.014;6.678;2023-03-20T18:33:50;10.60;99.90
9881;DHT22;4979;51.014;6.678;2023-03-20T18:36:19;10.60;99.90
9881;DHT22;4979;51.014;6.678;2023-03-20T18:38:45;10.60;99.90
9881;DHT22;4979;51.014;6.678;2023-03-20T18:43:41;10.60;99.90
9881;DHT22;4979;51.014;6.678;2023-03-20T18:46:14;10.60;99.90
9881;DHT22;4979;51.014;6.678;2023-03-20T18:48:41;10.50;99.90
9881;DHT22;4979;51.014;6.678;2023-03-20T18:51:07;10.60;99.90
9881;DHT22;4979;51.014;6.678;2023-03-20T18:53:33;10.60;99.90
9881;DHT22;4979;51.014;6.678;2023-03-20T18:55:59;10.60;99.90
9881;DHT22;4979;51.014;6.678;2023-03-20T18:58:27;10.60;99.90
9881;DHT22;4979;51.014;6.678;2023-03-20T19:00:55;10.60;99.90
9881;DHT22;4979;51.014;6.678;2023-03-20T19:03:22;10.50;99.90
9881;DHT22;4979;51.014;6.678;2023-03-20T19:05:53;10.60;99.90
9881;DHT22;4979;51.014;6.678;2023-03-20T19:08:20;10.60;99.90
9881;DHT22;4979;51.014;6.678;2023-03-20T19:10:46;10.60;99.90
9881;DHT22;4979;51.014;6.678;2023-03-20T19:13:19;10.60;99.90
9881;DHT22;4979;51.014;6.678;2023-03-20T19:18:22;10.60;99.90
9881;DHT22;4979;51.014;6.678;2023-03-20T19:20:50;10.50;99.90
9881;DHT22;4979;51.014;6.678;2023-03-20T19:23:18;10.50;99.90
9881;DHT22;4979;51.014;6.678;2023-03-20T19:25:46;10.50;99.90
9881;DHT22;4979;51.014;6.678;2023-03-20T19:28:26;10.50;99.90
9881;DHT22;4979;51.014;6.678;2023-03-20T19:30:53;10.50;99.90
9881;DHT22;4979;51.014;6.678;2023-03-20T19:35:45;10.50;99.90
9881;DHT22;4979;51.014;6.678;2023-03-20T19:38:16;10.50;99.90
9881;DHT22;4979;51.014;6.678;2023-03-20T19:41:00;10.50;99.90
9881;DHT22;4979;51.014;6.678;2023-03-20T19:43:28;10.50;99.90
9881;DHT22;4979;51.014;6.678;2023-03-20T19:48:21;10.60;99.90
9881;DHT22;4979;51.014;6.678;2023-03-20T19:50:48;10.60;99.90
9881;DHT22;4979;51.014;6.678;2023-03-20T19:53:16;10.60;99.90
9881;DHT22;4979;51.014;6.678;2023-03-20T20:00:36;10.50;99.90
9881;DHT22;4979;51.014;6.678;2023-03-20T20:03:03;10.60;99.90
9881;DHT22;4979;51.014;6.678;2023-03-20T20:08:00;10.60;99.90
9881;DHT22;4979;51.014;6.678;2023-03-20T20:10:30;10.50;99.90
9881;DHT22;4979;51.014;6.678;2023-03-20T20:12:56;10.60;99.90
9881;DHT22;4979;51.014;6.678;2023-03-20T20:15:22;10.60;99.90
9881;DHT22;4979;51.014;6.678;2023-03-20T20:17:48;10.60;99.90
9881;DHT22;4979;51.014;6.678;2023-03-20T20:20:16;10.60;99.90
9881;DHT22;4979;51.014;6.678;2023-03-20T20:25:09;10.60;99.90
9881;DHT22;4979;51.014;6.678;2023-03-20T20:27:36;10.60;99.90
9881;DHT22;4979;51.014;6.678;2023-03-20T20:30:02;10.60;99.90
9881;DHT22;4979;51.014;6.678;2023-03-20T20:32:28;10.60;99.90
9881;DHT22;4979;51.014;6.678;2023-03-20T20:34:55;10.60;99.90
9881;DHT22;4979;51.014;6.678;2023-03-20T20:37:22;10.60;99.90
9881;DHT22;4979;51.014;6.678;2023-03-20T20:39:48;10.60;99.90
9881;DHT22;4979;51.014;6.678;2023-03-20T20:42:14;10.60;99.90
9881;DHT22;4979;51.014;6.678;2023-03-20T20:44:41;10.60;99.90
9881;DHT22;4979;51.014;6.678;2023-03-20T20:49:33;10.60;99.90
9881;DHT22;4979;51.014;6.678;2023-03-20T20:51:59;10.60;99.90
9881;DHT22;4979;51.014;6.678;2023-03-20T20:54:25;10.60;99.90
9881;DHT22;4979;51.014;6.678;2023-03-20T20:56:51;10.60;99.90
9881;DHT22;4979;51.014;6.678;2023-03-20T20:59:17;10.60;99.90
9881;DHT22;4979;51.014;6.678;2023-03-20T21:01:44;10.70;99.90
9881;DHT22;4979;51.014;6.678;2023-03-20T21:09:02;10.60;99.90
9881;DHT22;4979;51.014;6.678;2023-03-20T21:11:27;10.60;99.90
9881;DHT22;4979;51.014;6.678;2023-03-20T21:13:53;10.60;99.90
9881;DHT22;4979;51.014;6.678;2023-03-20T21:16:19;10.60;99.90
9881;DHT22;4979;51.014;6.678;2023-03-20T21:18:46;10.60;99.90